createdAt,value
2023-04-16T00:01:04.451Z,2.95
2023-04-16T00:03:34.251Z,3.42
2023-04-16T00:06:07.386Z,3.25
2023-04-16T00:08:37.617Z,5.60
2023-04-16T00:11:08.564Z,2.70
2023-04-16T00:13:38.568Z,3.13
2023-04-16T00:16:08.610Z,2.65
2023-04-16T00:18:38.325Z,3.08
2023-04-16T00:21:10.611Z,3.38
2023-04-16T00:23:40.572Z,2.65
2023-04-16T00:26:11.408Z,2.72
2023-04-16T00:28:43.771Z,2.90
2023-04-16T00:31:13.500Z,4.18
2023-04-16T00:33:43.160Z,3.20
2023-04-16T00:36:15.971Z,2.55
2023-04-16T00:38:45.592Z,3.53
2023-04-16T00:41:15.508Z,3.30
2023-04-16T00:43:45.237Z,3.60
2023-04-16T00:46:14.960Z,2.83
2023-04-16T00:48:46.595Z,3.38
2023-04-16T00:51:20.256Z,5.50
2023-04-16T00:53:50.291Z,3.58
2023-04-16T00:56:20.590Z,4.03
2023-04-16T00:58:51.511Z,4.03
2023-04-16T01:01:21.200Z,3.90
2023-04-16T01:03:51.757Z,3.13
2023-04-16T01:06:24.082Z,3.33
2023-04-16T01:08:53.737Z,3.78
2023-04-16T01:11:23.385Z,4.03
2023-04-16T01:13:53.109Z,4.25
2023-04-16T01:16:22.823Z,3.67
2023-04-16T01:18:52.421Z,3.85
2023-04-16T01:21:25.162Z,4.43
2023-04-16T01:23:54.861Z,4.47
2023-04-16T01:26:24.430Z,3.58
2023-04-16T01:28:53.977Z,3.83
2023-04-16T01:31:23.615Z,3.85
2023-04-16T01:34:02.394Z,4.57
2023-04-16T01:36:34.732Z,4.75
2023-04-16T01:39:04.858Z,4.95
2023-04-16T01:41:34.777Z,4.63
2023-04-16T01:44:04.896Z,5.25
2023-04-16T01:46:35.272Z,5.28
2023-04-16T01:49:05.437Z,4.20
2023-04-16T01:51:37.679Z,4.20
2023-04-16T01:54:07.575Z,4.45
2023-04-16T01:56:37.204Z,4.60
2023-04-16T01:59:07.026Z,5.03
2023-04-16T02:01:42.644Z,5.38
2023-04-16T02:04:12.806Z,4.78
2023-04-16T02:06:45.166Z,4.43
2023-04-16T02:09:16.775Z,5.55
2023-04-16T02:11:46.403Z,4.38
2023-04-16T02:14:15.966Z,5.00
2023-04-16T02:16:45.773Z,5.03
2023-04-16T02:19:24.686Z,4.50
2023-04-16T02:21:57.369Z,4.82
2023-04-16T02:24:27.010Z,6.03
2023-04-16T02:26:57.130Z,5.30
2023-04-16T02:29:27.195Z,4.88
2023-04-16T02:32:03.616Z,4.88
2023-04-16T02:34:35.685Z,6.57
2023-04-16T02:37:08.469Z,5.72
2023-04-16T02:39:38.659Z,4.70
2023-04-16T02:42:08.227Z,5.25
2023-04-16T02:44:38.253Z,4.18
2023-04-16T02:47:07.858Z,4.35
2023-04-16T02:49:37.640Z,4.22
2023-04-16T02:52:09.890Z,4.50
2023-04-16T02:54:39.517Z,4.70
2023-04-16T02:57:09.093Z,4.03
2023-04-16T02:59:38.706Z,3.88
2023-04-16T03:02:08.349Z,4.32
2023-04-16T03:04:38.163Z,3.67
2023-04-16T03:07:11.374Z,4.70
2023-04-16T03:09:41.072Z,4.10
2023-04-16T03:12:10.644Z,2.88
2023-04-16T03:14:40.217Z,3.58
2023-04-16T03:17:09.823Z,4.38
2023-04-16T03:19:39.352Z,4.10
2023-04-16T03:22:11.524Z,3.65
2023-04-16T03:24:41.294Z,3.90
2023-04-16T03:27:11.006Z,3.67
2023-04-16T03:29:40.840Z,4.43
2023-04-16T03:32:12.865Z,4.72
2023-04-16T03:34:42.548Z,4.72
2023-04-16T03:37:14.816Z,4.93
2023-04-16T03:39:44.580Z,4.38
2023-04-16T03:42:14.702Z,5.07
2023-04-16T03:44:44.284Z,4.85
2023-04-16T03:47:14.263Z,4.80
2023-04-16T03:49:43.876Z,5.13
2023-04-16T03:52:17.428Z,5.05
2023-04-16T03:54:47.121Z,7.47
2023-04-16T03:57:31.028Z,4.47
2023-04-16T04:00:06.502Z,4.40
2023-04-16T04:02:45.520Z,4.32
2023-04-16T04:05:21.337Z,5.00
2023-04-16T04:07:54.522Z,4.85
2023-04-16T04:10:24.170Z,4.50
2023-04-16T04:12:53.844Z,4.45
2023-04-16T04:15:23.469Z,4.57
2023-04-16T04:17:53.200Z,4.90
2023-04-16T04:20:23.426Z,4.13
2023-04-16T04:22:56.913Z,4.68
2023-04-16T04:25:28.744Z,4.57
2023-04-16T04:27:58.350Z,4.53
2023-04-16T04:30:28.084Z,3.75
2023-04-16T04:32:57.744Z,4.97
2023-04-16T04:35:27.367Z,3.75
2023-04-16T04:37:59.961Z,4.70
2023-04-16T04:40:30.918Z,5.38
2023-04-16T04:43:00.841Z,6.10
2023-04-16T04:45:31.948Z,4.28
2023-04-16T04:48:02.220Z,5.15
2023-04-16T04:50:32.498Z,4.35
2023-04-16T04:53:07.767Z,4.82
2023-04-16T04:55:37.365Z,5.65
2023-04-16T04:58:07.467Z,4.50
2023-04-16T05:00:37.752Z,4.38
2023-04-16T05:03:08.645Z,4.93
2023-04-16T05:05:38.462Z,5.22
2023-04-16T05:08:10.680Z,4.55
2023-04-16T05:10:40.306Z,4.90
2023-04-16T05:13:09.864Z,5.60
2023-04-16T05:15:39.615Z,5.53
2023-04-16T05:18:09.171Z,5.95
2023-04-16T05:20:38.725Z,6.18
2023-04-16T05:23:11.459Z,4.43
2023-04-16T05:25:41.197Z,5.55
2023-04-16T05:28:10.767Z,5.15
2023-04-16T05:30:40.565Z,5.95
2023-04-16T05:33:10.188Z,4.43
2023-04-16T05:35:39.881Z,4.78
2023-04-16T05:38:12.038Z,5.85
2023-04-16T05:40:41.813Z,6.47
2023-04-16T05:43:11.657Z,5.90
2023-04-16T05:45:41.818Z,5.35
2023-04-16T05:48:12.625Z,5.95
2023-04-16T05:50:42.369Z,6.10
2023-04-16T05:53:14.570Z,7.60
2023-04-16T05:55:44.237Z,7.40
2023-04-16T05:58:13.851Z,6.65
2023-04-16T06:00:43.515Z,5.80
2023-04-16T06:03:13.252Z,5.85
2023-04-16T06:05:42.973Z,4.63
2023-04-16T06:08:15.260Z,4.43
2023-04-16T06:10:44.876Z,4.05
2023-04-16T06:13:14.494Z,5.70
2023-04-16T06:15:44.120Z,4.85
2023-04-16T06:18:13.766Z,4.57
2023-04-16T06:20:43.393Z,5.18
2023-04-16T06:23:15.896Z,4.45
2023-04-16T06:25:45.544Z,6.20
2023-04-16T06:28:15.088Z,4.35
2023-04-16T06:30:44.902Z,4.35
2023-04-16T06:33:14.636Z,4.43
2023-04-16T06:35:44.264Z,3.90
2023-04-16T06:38:16.505Z,5.07
2023-04-16T06:40:46.163Z,4.55
2023-04-16T06:43:15.938Z,4.22
2023-04-16T06:45:45.608Z,5.38
2023-04-16T06:48:15.154Z,4.70
2023-04-16T06:50:44.745Z,5.90
2023-04-16T06:53:17.036Z,4.55
2023-04-16T06:55:46.669Z,4.55
2023-04-16T06:58:16.231Z,4.28
2023-04-16T07:00:46.190Z,5.05
2023-04-16T07:03:16.056Z,3.38
2023-04-16T07:05:45.796Z,4.25
2023-04-16T07:08:17.957Z,4.00
2023-04-16T07:10:47.705Z,5.03
2023-04-16T07:13:18.712Z,5.13
2023-04-16T07:15:48.331Z,3.85
2023-04-16T07:18:19.308Z,4.13
2023-04-16T07:20:50.701Z,5.05
2023-04-16T07:23:22.868Z,4.13
2023-04-16T07:25:52.546Z,3.22
2023-04-16T07:28:22.104Z,3.17
2023-04-16T07:30:52.386Z,3.50
2023-04-16T07:33:22.030Z,3.50
2023-04-16T07:35:51.717Z,2.33
2023-04-16T07:38:23.924Z,3.50
2023-04-16T07:40:53.690Z,3.20
2023-04-16T07:43:23.286Z,2.67
2023-04-16T07:45:53.571Z,3.20
2023-04-16T07:48:23.154Z,3.08
2023-04-16T07:50:53.083Z,4.30
2023-04-16T07:53:25.297Z,3.28
2023-04-16T07:55:54.928Z,3.35
2023-04-16T07:58:24.502Z,3.78
2023-04-16T08:00:54.407Z,2.85
2023-04-16T08:03:24.451Z,3.15
2023-04-16T08:05:55.477Z,2.78
2023-04-16T08:08:28.063Z,3.40
2023-04-16T08:10:58.240Z,3.22
2023-04-16T08:13:27.921Z,2.13
2023-04-16T08:15:57.511Z,2.83
2023-04-16T08:18:27.322Z,2.85
2023-04-16T08:20:56.912Z,3.42
2023-04-16T08:23:29.967Z,2.45
2023-04-16T08:25:59.629Z,3.10
2023-04-16T08:28:29.149Z,2.40
2023-04-16T08:30:58.902Z,2.72
2023-04-16T08:33:28.538Z,2.03
2023-04-16T08:35:58.132Z,3.30
2023-04-16T08:38:30.358Z,2.58
2023-04-16T08:41:01.067Z,2.40
2023-04-16T08:43:31.151Z,2.17
2023-04-16T08:46:00.832Z,2.13
2023-04-16T08:48:31.933Z,2.08
2023-04-16T08:51:02.928Z,1.70
2023-04-16T08:53:38.599Z,1.95
2023-04-16T08:56:08.683Z,1.70
2023-04-16T08:58:39.790Z,1.83
2023-04-16T09:01:09.545Z,1.55
2023-04-16T09:03:39.378Z,1.50
2023-04-16T09:06:09.348Z,1.88
2023-04-16T09:08:41.952Z,1.63
2023-04-16T09:11:11.676Z,1.70
2023-04-16T09:13:41.270Z,1.30
2023-04-16T09:16:11.757Z,0.95
2023-04-16T09:18:41.496Z,1.50
2023-04-16T09:21:12.606Z,1.65
2023-04-16T09:23:44.918Z,1.60
2023-04-16T09:26:14.590Z,0.95
2023-04-16T09:28:45.238Z,1.60
2023-04-16T09:31:16.112Z,0.90
2023-04-16T09:33:46.395Z,1.17
2023-04-16T09:36:16.043Z,0.98
2023-04-16T09:38:51.663Z,1.10
2023-04-16T09:41:21.813Z,1.42
2023-04-16T09:43:59.123Z,1.00
2023-04-16T09:46:32.577Z,0.90
2023-04-16T09:49:07.900Z,1.50
2023-04-16T09:51:40.043Z,2.20
2023-04-16T09:54:12.615Z,1.75
2023-04-16T09:56:43.400Z,1.60
2023-04-16T09:59:19.826Z,1.67
2023-04-16T10:01:49.999Z,1.35
2023-04-16T10:04:19.944Z,1.67
2023-04-16T10:07:05.188Z,1.67
2023-04-16T10:09:40.180Z,1.15
2023-04-16T10:12:10.493Z,1.50
2023-04-16T10:14:40.061Z,1.85
2023-04-16T10:17:09.965Z,1.35
2023-04-16T10:19:39.704Z,2.00
2023-04-16T10:22:09.305Z,1.85
2023-04-16T10:24:41.838Z,2.05
2023-04-16T10:27:11.609Z,1.80
2023-04-16T10:29:41.812Z,1.70
2023-04-16T10:32:11.494Z,2.25
2023-04-16T10:34:41.183Z,2.83
2023-04-16T10:37:10.997Z,1.90
2023-04-16T10:39:43.191Z,2.13
2023-04-16T10:42:13.688Z,1.67
2023-04-16T10:44:45.443Z,1.92
2023-04-16T10:47:15.891Z,1.83
2023-04-16T10:49:45.816Z,1.85
2023-04-16T10:52:17.413Z,2.47
2023-04-16T10:54:50.196Z,2.00
2023-04-16T10:57:20.916Z,3.00
2023-04-16T10:59:51.977Z,1.63
2023-04-16T11:02:22.245Z,2.47
2023-04-16T11:04:52.435Z,1.90
2023-04-16T11:07:22.705Z,1.75
2023-04-16T11:09:59.847Z,1.45
2023-04-16T11:15:02.361Z,1.83
2023-04-16T11:17:33.208Z,2.65
2023-04-16T11:20:02.957Z,3.53
2023-04-16T11:22:33.166Z,1.93
2023-04-16T11:25:05.812Z,1.77
2023-04-16T11:27:35.469Z,2.17
2023-04-16T11:30:06.161Z,1.50
2023-04-16T11:32:36.373Z,1.70
2023-04-16T11:35:07.543Z,1.60
2023-04-16T11:37:37.689Z,2.30
2023-04-16T11:40:10.654Z,5.63
2023-04-16T11:42:41.148Z,1.98
2023-04-16T11:45:11.585Z,1.40
2023-04-16T11:47:52.126Z,1.90
2023-04-16T11:50:24.316Z,2.30
2023-04-16T11:52:54.848Z,1.58
2023-04-16T11:55:27.308Z,1.70
2023-04-16T11:57:57.099Z,1.45
2023-04-16T12:00:26.702Z,1.63
2023-04-16T12:02:57.128Z,1.45
2023-04-16T12:05:31.486Z,1.70
2023-04-16T12:08:01.924Z,0.93
2023-04-16T12:10:35.504Z,1.67
2023-04-16T12:13:15.442Z,1.05
2023-04-16T12:15:48.885Z,1.27
2023-04-16T12:18:18.744Z,0.90
2023-04-16T12:20:48.982Z,1.00
2023-04-16T12:23:28.401Z,1.38
2023-04-16T12:26:03.014Z,1.10
2023-04-16T12:28:33.480Z,1.38
2023-04-16T12:31:03.274Z,1.65
2023-04-16T12:33:33.002Z,1.33
2023-04-16T12:36:04.500Z,1.23
2023-04-16T12:38:34.074Z,1.63
2023-04-16T12:41:06.625Z,1.60
2023-04-16T12:43:36.241Z,2.22
2023-04-16T12:46:06.000Z,1.45
2023-04-16T12:48:35.640Z,1.60
2023-04-16T12:51:05.350Z,1.80
2023-04-16T12:53:34.964Z,2.08
2023-04-16T12:56:07.486Z,1.55
2023-04-16T12:58:37.384Z,1.30
2023-04-16T13:01:06.969Z,1.50
2023-04-16T13:03:37.470Z,0.98
2023-04-16T13:06:07.337Z,0.80
2023-04-16T13:08:37.563Z,1.48
2023-04-16T13:11:09.768Z,1.08
2023-04-16T13:13:39.682Z,1.60
2023-04-16T13:16:09.331Z,1.15
2023-04-16T13:18:40.358Z,1.23
2023-04-16T13:21:10.039Z,1.73
2023-04-16T13:23:39.706Z,1.75
2023-04-16T13:26:13.246Z,1.15
2023-04-16T13:28:42.862Z,1.20
2023-04-16T13:31:12.469Z,1.25
2023-04-16T13:33:42.244Z,1.40
2023-04-16T13:36:11.828Z,2.28
2023-04-16T13:38:42.419Z,1.63
2023-04-16T13:41:14.629Z,1.92
2023-04-16T13:43:44.324Z,3.10
2023-04-16T13:46:13.895Z,1.30
2023-04-16T13:48:43.609Z,1.58
2023-04-16T13:51:15.589Z,2.05
2023-04-16T13:53:45.195Z,1.58
2023-04-16T13:56:17.738Z,1.48
2023-04-16T13:58:47.364Z,1.23
2023-04-16T14:01:17.384Z,2.28
2023-04-16T14:03:47.128Z,1.40
2023-04-16T14:06:18.284Z,1.13
2023-04-16T14:08:48.006Z,1.17
2023-04-16T14:11:20.168Z,1.48
2023-04-16T14:13:49.859Z,1.55
2023-04-16T14:16:19.513Z,2.03
2023-04-16T14:18:49.159Z,1.70
2023-04-16T14:21:18.736Z,1.60
2023-04-16T14:23:48.320Z,1.77
2023-04-16T14:26:20.925Z,2.47
2023-04-16T14:28:50.861Z,2.15
2023-04-16T14:31:20.827Z,3.50
2023-04-16T14:33:50.659Z,1.60
2023-04-16T14:36:20.666Z,1.63
2023-04-16T14:38:50.260Z,1.70
2023-04-16T14:41:22.522Z,2.20
2023-04-16T14:43:52.157Z,2.38
2023-04-16T14:46:21.909Z,4.18
2023-04-16T14:48:51.664Z,2.72
2023-04-16T14:51:21.430Z,3.08
2023-04-16T14:53:51.165Z,4.18
2023-04-16T14:56:23.810Z,2.38
2023-04-16T14:58:53.866Z,1.88
2023-04-16T15:01:23.532Z,2.53
2023-04-16T15:03:56.156Z,2.28
2023-04-16T15:06:26.469Z,2.25
2023-04-16T15:08:56.056Z,2.17
2023-04-16T15:11:28.679Z,2.63
2023-04-16T15:13:58.419Z,2.13
2023-04-16T15:16:28.032Z,1.40
2023-04-16T15:18:57.666Z,2.20
2023-04-16T15:21:28.894Z,2.63
2023-04-16T15:23:58.488Z,2.28
2023-04-16T15:26:30.803Z,2.22
2023-04-16T15:29:00.677Z,2.30
2023-04-16T15:31:30.427Z,3.67
2023-04-16T15:34:00.185Z,2.17
2023-04-16T15:36:30.262Z,3.00
2023-04-16T15:39:00.033Z,2.13
2023-04-16T15:41:36.954Z,2.40
2023-04-16T15:44:06.857Z,1.95
2023-04-16T15:46:36.502Z,2.00
2023-04-16T15:49:06.191Z,1.50
2023-04-16T15:51:35.963Z,1.52
2023-04-16T15:54:06.607Z,1.77
2023-04-16T15:56:40.005Z,2.22
2023-04-16T15:59:09.881Z,1.75
2023-04-16T16:01:39.671Z,1.48
2023-04-16T16:04:09.984Z,2.42
2023-04-16T16:06:39.859Z,1.80
2023-04-16T16:09:09.666Z,2.00
2023-04-16T16:11:42.208Z,1.90
2023-04-16T16:14:11.859Z,1.48
2023-04-16T16:16:41.455Z,1.23
2023-04-16T16:19:11.447Z,3.72
2023-04-16T16:21:41.439Z,1.15
2023-04-16T16:24:11.063Z,1.10
2023-04-16T16:26:43.266Z,1.38
2023-04-16T16:29:13.082Z,1.10
2023-04-16T16:31:42.893Z,2.03
2023-04-16T16:34:20.091Z,1.25
2023-04-16T16:36:51.109Z,1.50
2023-04-16T16:39:24.489Z,1.77
2023-04-16T16:41:57.052Z,1.55
2023-04-16T16:44:27.273Z,1.77
2023-04-16T16:46:56.942Z,1.45
2023-04-16T16:49:26.536Z,1.10
2023-04-16T16:51:56.116Z,1.38
2023-04-16T16:54:25.765Z,1.83
2023-04-16T16:56:58.984Z,1.30
2023-04-16T16:59:28.810Z,1.58
2023-04-16T17:01:58.483Z,1.48
2023-04-16T17:04:28.229Z,1.17
2023-04-16T17:06:57.936Z,1.98
2023-04-16T17:09:27.621Z,1.60
2023-04-16T17:11:59.869Z,1.58
2023-04-16T17:14:29.503Z,1.95
2023-04-16T17:16:59.179Z,1.48
2023-04-16T17:19:28.851Z,1.50
2023-04-16T17:21:58.433Z,1.42
2023-04-16T17:24:28.117Z,1.85
2023-04-16T17:27:00.331Z,1.80
2023-04-16T17:29:30.091Z,1.77
2023-04-16T17:32:00.022Z,2.08
2023-04-16T17:34:31.281Z,1.73
2023-04-16T17:37:01.055Z,4.30
2023-04-16T17:39:30.718Z,2.33
2023-04-16T17:42:04.148Z,1.70
2023-04-16T17:44:33.841Z,1.80
2023-04-16T17:47:03.435Z,2.28
2023-04-16T17:49:33.079Z,1.80
2023-04-16T17:52:02.721Z,1.67
2023-04-16T17:54:32.336Z,1.80
2023-04-16T17:57:04.777Z,1.95
2023-04-16T17:59:34.782Z,1.70
2023-04-16T18:02:04.465Z,1.60
2023-04-16T18:04:34.240Z,1.77
2023-04-16T18:07:03.854Z,1.80
2023-04-16T18:09:33.515Z,1.60
2023-04-16T18:12:05.771Z,2.25
2023-04-16T18:14:37.339Z,1.83
2023-04-16T18:17:07.097Z,2.00
2023-04-16T18:19:36.655Z,1.90
2023-04-16T18:22:06.298Z,2.15
2023-04-16T18:24:36.691Z,2.35
2023-04-16T18:27:08.948Z,2.20
2023-04-16T18:29:39.968Z,2.10
2023-04-16T18:32:12.130Z,2.15
2023-04-16T18:34:42.235Z,1.33
2023-04-16T18:37:11.905Z,1.55
2023-04-16T18:39:41.927Z,1.75
2023-04-16T18:42:14.154Z,1.35
2023-04-16T18:44:43.811Z,1.10
2023-04-16T18:47:13.370Z,1.42
2023-04-16T18:49:43.012Z,1.80
2023-04-16T18:52:12.615Z,0.98
2023-04-16T18:54:42.238Z,1.25
2023-04-16T18:57:14.450Z,1.42
2023-04-16T18:59:44.091Z,1.10
2023-04-16T19:02:13.910Z,1.33
2023-04-16T19:04:43.900Z,1.13
2023-04-16T19:07:13.481Z,1.05
2023-04-16T19:09:43.033Z,1.80
2023-04-16T19:12:15.254Z,1.30
2023-04-16T19:14:44.887Z,1.70
2023-04-16T19:17:14.415Z,1.60
2023-04-16T19:19:44.084Z,1.58
2023-04-16T19:22:13.652Z,1.33
2023-04-16T19:24:43.210Z,1.95
2023-04-16T19:27:15.593Z,1.95
2023-04-16T19:29:46.875Z,1.92
2023-04-16T19:32:16.690Z,1.10
2023-04-16T19:34:47.391Z,1.65
2023-04-16T19:37:17.061Z,1.42
2023-04-16T19:39:46.682Z,2.13
2023-04-16T19:42:18.886Z,1.75
2023-04-16T19:44:48.491Z,1.70
2023-04-16T19:47:18.089Z,2.05
2023-04-16T19:49:47.858Z,1.40
2023-04-16T19:52:17.781Z,3.30
2023-04-16T19:54:48.038Z,2.17
2023-04-16T19:57:20.241Z,2.60
2023-04-16T19:59:49.931Z,2.80
2023-04-16T20:02:19.574Z,2.75
2023-04-16T20:04:49.275Z,3.22
2023-04-16T20:07:19.176Z,2.75
2023-04-16T20:09:48.851Z,2.78
2023-04-16T20:12:21.458Z,2.50
2023-04-16T20:14:51.651Z,2.85
2023-04-16T20:17:21.258Z,3.63
2023-04-16T20:19:51.398Z,2.45
2023-04-16T20:22:21.246Z,2.70
2023-04-16T20:24:55.192Z,2.70
2023-04-16T20:27:27.534Z,2.90
2023-04-16T20:29:57.212Z,6.55
2023-04-16T20:32:27.936Z,2.47
2023-04-16T20:34:57.882Z,2.80
2023-04-16T20:37:29.187Z,2.70
2023-04-16T20:39:58.984Z,2.70
2023-04-16T20:42:32.299Z,3.08
2023-04-16T20:45:02.066Z,3.20
2023-04-16T20:47:31.826Z,3.17
2023-04-16T20:50:02.015Z,2.05
2023-04-16T20:52:31.715Z,2.63
2023-04-16T20:55:01.383Z,2.63
2023-04-16T20:57:33.665Z,2.10
2023-04-16T21:00:05.993Z,1.83
2023-04-16T21:02:35.873Z,2.28
2023-04-16T21:05:06.589Z,2.53
2023-04-16T21:07:36.402Z,2.35
2023-04-16T21:10:06.089Z,2.17
2023-04-16T21:12:38.774Z,2.40
2023-04-16T21:15:08.926Z,2.00
2023-04-16T21:17:38.620Z,2.33
2023-04-16T21:20:10.827Z,2.40
2023-04-16T21:22:40.571Z,3.20
2023-04-16T21:25:10.921Z,4.30
2023-04-16T21:27:43.067Z,2.47
2023-04-16T21:30:13.154Z,2.55
2023-04-16T21:32:42.775Z,2.30
2023-04-16T21:35:12.842Z,2.15
2023-04-16T21:37:42.569Z,2.63
2023-04-16T21:40:12.551Z,2.72
2023-04-16T21:42:44.728Z,2.75
2023-04-16T21:45:14.724Z,3.28
2023-04-16T21:47:44.391Z,3.55
2023-04-16T21:50:14.809Z,3.70
2023-04-16T21:52:46.917Z,2.90
2023-04-16T21:55:16.916Z,3.15
2023-04-16T21:57:49.153Z,3.38
2023-04-16T22:00:19.245Z,3.13
2023-04-16T22:02:48.944Z,3.58
2023-04-16T22:05:20.223Z,3.05
2023-04-16T22:07:49.931Z,3.17
2023-04-16T22:10:19.724Z,3.38
2023-04-16T22:12:55.070Z,3.70
2023-04-16T22:15:24.810Z,3.33
2023-04-16T22:17:54.454Z,2.63
2023-04-16T22:20:24.671Z,3.75
2023-04-16T22:22:58.000Z,3.20
2023-04-16T22:25:27.832Z,2.90
2023-04-16T22:28:00.117Z,3.13
2023-04-16T22:30:29.963Z,2.45
2023-04-16T22:32:59.598Z,3.67
2023-04-16T22:35:29.269Z,3.05
2023-04-16T22:37:58.936Z,3.45
2023-04-16T22:40:28.534Z,2.95
2023-04-16T22:43:00.808Z,3.13
2023-04-16T22:45:30.426Z,3.17
2023-04-16T22:48:00.103Z,3.85
2023-04-16T22:50:31.548Z,3.78
2023-04-16T22:53:01.289Z,3.30
2023-04-16T22:55:30.895Z,3.05
2023-04-16T22:58:03.140Z,4.82
2023-04-16T23:00:32.812Z,3.45
2023-04-16T23:03:02.582Z,3.38
2023-04-16T23:05:32.508Z,3.30
2023-04-16T23:08:02.177Z,3.72
2023-04-16T23:10:31.790Z,3.40
2023-04-16T23:13:04.030Z,4.43
2023-04-16T23:15:33.786Z,3.53
2023-04-16T23:18:03.513Z,3.40
2023-04-16T23:20:33.206Z,4.03
2023-04-16T23:23:02.794Z,3.53
2023-04-16T23:25:36.079Z,4.15
2023-04-16T23:28:08.315Z,3.63
2023-04-16T23:30:37.955Z,3.78
2023-04-16T23:33:07.530Z,3.25
2023-04-16T23:35:37.402Z,4.00
2023-04-16T23:38:06.998Z,3.65
2023-04-16T23:40:36.553Z,4.10
2023-04-16T23:43:08.791Z,3.70
2023-04-16T23:45:38.426Z,3.35
2023-04-16T23:48:08.219Z,4.35
2023-04-16T23:50:38.009Z,4.13
2023-04-16T23:53:07.636Z,3.70
2023-04-16T23:55:37.250Z,3.90
2023-04-16T23:58:09.452Z,3.42
